Time;durP1;ratioP1;P1;durP2;ratioP2;P2;SDS_P1;SDS_P2;PMS_P1;PMS_P2;Temp;Humidity;BMP_temperature;BMP_pressure;BME280_temperature;BME280_humidity;BME280_pressure;Samples;Min_cycle;Max_cycle;Signal;HPM_P1;HPM_P2
2022/01/21 00:00:55;;;;;;;;;;;1.70;99.90;;;;;;4995664;28;19932;-75
2022/01/21 00:03:21;;;;;;;;;;;1.60;99.90;;;;;;4999257;28;20292;-75
2022/01/21 00:05:46;;;;;;;;;;;1.60;99.90;;;;;;4994203;28;19941;-75
2022/01/21 00:08:12;;;;;;;;;;;1.50;99.90;;;;;;4995127;28;20352;-75
2022/01/21 00:10:37;;;;;;;;;;;1.50;99.90;;;;;;5011694;28;20394;-75
2022/01/21 00:13:13;;;;;;;;;;;1.50;99.90;;;;;;4995386;28;20352;-75
2022/01/21 00:15:38;;;;;;;;;;;1.50;99.90;;;;;;4995653;28;20386;-75
2022/01/21 00:18:05;;;;;;;;;;;1.40;99.90;;;;;;4997733;28;20004;-75
2022/01/21 00:31:27;;;;;;;;;;;1.30;99.90;;;;;;5011477;28;20184;-75
2022/01/21 00:33:53;;;;;;;;;;;1.20;99.90;;;;;;5008897;28;19940;-75
2022/01/21 00:36:18;;;;;;;;;;;1.30;99.90;;;;;;4995279;28;19925;-75
2022/01/21 00:38:44;;;;;;;;;;;1.30;99.90;;;;;;5001745;28;20396;-75
2022/01/21 00:41:11;;;;;;;;;;;1.30;99.90;;;;;;4994909;28;19954;-75
2022/01/21 00:43:44;;;;;;;;;;;1.40;99.90;;;;;;4994614;28;19926;-75
2022/01/21 00:46:13;;;;;;;;;;;1.50;99.90;;;;;;5026630;28;20019;-75
2022/01/21 00:48:39;;;;;;;;;;;1.50;99.90;;;;;;5011306;28;19921;-75
2022/01/21 00:51:04;;;;;;;;;;;1.60;99.90;;;;;;4994785;28;20380;-75
2022/01/21 00:53:30;;;;;;;;;;;1.50;99.90;;;;;;4998610;28;19922;-75
2022/01/21 00:55:55;;;;;;;;;;;1.60;99.90;;;;;;4991220;28;19926;-75
2022/01/21 00:58:21;;;;;;;;;;;1.50;99.90;;;;;;4975462;28;19976;-75
2022/01/21 01:00:46;;;;;;;;;;;1.50;99.90;;;;;;5000698;28;20394;-75
2022/01/21 01:03:14;;;;;;;;;;;1.50;99.90;;;;;;4994630;28;19976;-75
2022/01/21 01:05:39;;;;;;;;;;;1.30;99.90;;;;;;4995674;28;19929;-75
2022/01/21 01:08:05;;;;;;;;;;;1.30;99.90;;;;;;4995858;28;19921;-75
2022/01/21 01:10:58;;;;;;;;;;;1.20;99.90;;;;;;4995052;28;19928;-75
2022/01/21 01:21:44;;;;;;;;;;;0.80;99.90;;;;;;5020480;28;20370;-75
2022/01/21 01:29:20;;;;;;;;;;;0.80;99.90;;;;;;5019636;28;20360;-75
2022/01/21 01:31:46;;;;;;;;;;;0.90;99.90;;;;;;5004158;28;19953;-75
2022/01/21 01:34:12;;;;;;;;;;;0.90;99.90;;;;;;5015427;28;20056;-75
2022/01/21 01:36:39;;;;;;;;;;;0.80;99.90;;;;;;4998217;28;19925;-75
2022/01/21 01:39:18;;;;;;;;;;;0.80;99.90;;;;;;4997945;28;19925;-75
2022/01/21 01:41:55;;;;;;;;;;;0.70;99.90;;;;;;4998076;28;20338;-75
2022/01/21 01:49:49;;;;;;;;;;;0.80;99.90;;;;;;5014246;28;20016;-75
2022/01/21 01:52:16;;;;;;;;;;;0.90;99.90;;;;;;4998110;28;20012;-75
2022/01/21 01:54:43;;;;;;;;;;;0.80;99.90;;;;;;5012537;28;19922;-75
2022/01/21 01:57:08;;;;;;;;;;;0.90;99.90;;;;;;4997766;28;19922;-75
2022/01/21 01:59:34;;;;;;;;;;;0.90;99.90;;;;;;4997622;28;19925;-75
2022/01/21 02:02:01;;;;;;;;;;;1.00;99.90;;;;;;4997959;28;20295;-75
2022/01/21 02:04:27;;;;;;;;;;;1.00;99.90;;;;;;5012048;28;19922;-75
2022/01/21 02:06:53;;;;;;;;;;;1.00;99.90;;;;;;4997943;28;19928;-75
2022/01/21 02:09:19;;;;;;;;;;;1.10;99.90;;;;;;4997939;28;20265;-75
2022/01/21 02:11:46;;;;;;;;;;;1.20;99.90;;;;;;5004077;28;19921;-75
2022/01/21 02:14:15;;;;;;;;;;;1.30;99.90;;;;;;4997401;28;20000;-75
2022/01/21 02:17:07;;;;;;;;;;;1.30;99.90;;;;;;5001457;28;19925;-75
2022/01/21 02:22:15;;;;;;;;;;;1.30;99.90;;;;;;5013321;28;19926;-75
2022/01/21 02:24:54;;;;;;;;;;;1.30;99.90;;;;;;4998250;28;19921;-75
2022/01/21 02:27:20;;;;;;;;;;;1.20;99.90;;;;;;5013417;28;19984;-75
2022/01/21 02:29:52;;;;;;;;;;;1.20;99.90;;;;;;5000079;28;20438;-77
2022/01/21 02:32:18;;;;;;;;;;;1.10;99.90;;;;;;4993556;28;19922;-77
2022/01/21 02:34:45;;;;;;;;;;;1.00;99.90;;;;;;4997041;28;19921;-77
2022/01/21 02:37:15;;;;;;;;;;;0.90;99.90;;;;;;4997251;28;19925;-77
2022/01/21 02:39:41;;;;;;;;;;;0.80;99.90;;;;;;4997203;28;20307;-77
2022/01/21 02:42:07;;;;;;;;;;;0.70;99.90;;;;;;4996937;28;20086;-77
2022/01/21 02:44:32;;;;;;;;;;;0.60;99.90;;;;;;4996843;28;19925;-77
2022/01/21 02:47:01;;;;;;;;;;;0.50;99.90;;;;;;4996875;28;19922;-77
2022/01/21 02:49:27;;;;;;;;;;;0.60;99.90;;;;;;4996745;28;19922;-77
2022/01/21 02:51:53;;;;;;;;;;;0.60;99.90;;;;;;5013268;28;20036;-77
2022/01/21 02:54:19;;;;;;;;;;;0.60;99.90;;;;;;4996955;28;20384;-77
2022/01/21 02:56:45;;;;;;;;;;;0.50;99.90;;;;;;4999164;28;19965;-77
2022/01/21 02:59:10;;;;;;;;;;;0.50;99.90;;;;;;4993080;28;19921;-77
2022/01/21 03:01:37;;;;;;;;;;;0.50;99.90;;;;;;4996797;28;20355;-77
2022/01/21 03:04:04;;;;;;;;;;;0.60;99.90;;;;;;4996564;28;19934;-77
2022/01/21 03:06:29;;;;;;;;;;;0.70;99.90;;;;;;5011795;28;20008;-77
2022/01/21 03:08:57;;;;;;;;;;;0.70;99.90;;;;;;4996225;28;20409;-77
2022/01/21 03:11:24;;;;;;;;;;;0.80;99.90;;;;;;5006983;28;19926;-77
2022/01/21 03:13:49;;;;;;;;;;;0.90;99.90;;;;;;5012643;28;19922;-77
2022/01/21 03:16:15;;;;;;;;;;;0.90;99.90;;;;;;4996117;28;19995;-77
2022/01/21 03:18:41;;;;;;;;;;;1.00;99.90;;;;;;4996398;28;19967;-77
2022/01/21 03:21:09;;;;;;;;;;;1.00;99.90;;;;;;5012052;28;20329;-77
2022/01/21 03:23:35;;;;;;;;;;;0.90;99.90;;;;;;5006970;28;19925;-77
2022/01/21 03:26:00;;;;;;;;;;;0.90;99.90;;;;;;4992437;28;19922;-77
2022/01/21 03:28:29;;;;;;;;;;;0.90;99.90;;;;;;4976641;28;19925;-77
2022/01/21 03:30:56;;;;;;;;;;;0.90;99.90;;;;;;4986441;28;19925;-77
2022/01/21 03:33:25;;;;;;;;;;;0.70;99.90;;;;;;5002738;28;19925;-77
2022/01/21 03:35:51;;;;;;;;;;;0.60;99.90;;;;;;4995965;28;20000;-77
2022/01/21 03:38:17;;;;;;;;;;;0.60;99.90;;;;;;4995817;28;19968;-77
2022/01/21 03:40:43;;;;;;;;;;;0.60;99.90;;;;;;4995898;28;19929;-77
2022/01/21 03:43:10;;;;;;;;;;;0.40;99.90;;;;;;4999566;28;19925;-77
2022/01/21 03:45:35;;;;;;;;;;;0.40;99.90;;;;;;4995551;28;20335;-77
2022/01/21 03:48:01;;;;;;;;;;;0.40;99.90;;;;;;4995863;28;19940;-77
2022/01/21 03:50:32;;;;;;;;;;;0.30;99.90;;;;;;4994781;28;22052;-77
2022/01/21 03:52:59;;;;;;;;;;;0.30;99.90;;;;;;4992059;28;20383;-78
2022/01/21 03:55:24;;;;;;;;;;;0.40;99.90;;;;;;4985367;28;19944;-77
2022/01/21 03:57:50;;;;;;;;;;;0.40;99.90;;;;;;4995582;28;20375;-77
2022/01/21 04:00:19;;;;;;;;;;;0.40;99.90;;;;;;4995521;28;19925;-77
2022/01/21 04:02:44;;;;;;;;;;;0.40;99.90;;;;;;4996097;28;20375;-77
2022/01/21 04:05:10;;;;;;;;;;;0.40;99.90;;;;;;4998673;28;19921;-77
2022/01/21 04:07:36;;;;;;;;;;;0.40;99.90;;;;;;4995340;28;19925;-77
2022/01/21 04:10:03;;;;;;;;;;;0.40;99.90;;;;;;4995333;28;20024;-77
2022/01/21 04:12:28;;;;;;;;;;;0.50;99.90;;;;;;5010927;28;19926;-77
2022/01/21 04:14:54;;;;;;;;;;;0.50;99.90;;;;;;4999848;28;20274;-77
2022/01/21 04:17:19;;;;;;;;;;;0.50;99.90;;;;;;4995415;28;19921;-77
2022/01/21 04:19:45;;;;;;;;;;;0.50;99.90;;;;;;4995476;28;20442;-77
2022/01/21 04:22:11;;;;;;;;;;;0.50;99.90;;;;;;4995060;28;19936;-77
2022/01/21 04:24:37;;;;;;;;;;;0.50;99.90;;;;;;5006533;28;19925;-77
2022/01/21 04:27:03;;;;;;;;;;;0.50;99.90;;;;;;4996022;28;20291;-77
2022/01/21 04:29:29;;;;;;;;;;;0.50;99.90;;;;;;4995078;28;19977;-77
2022/01/21 04:31:57;;;;;;;;;;;0.50;99.90;;;;;;4995510;28;19921;-77
2022/01/21 04:34:22;;;;;;;;;;;0.50;99.90;;;;;;5006252;28;19926;-77
2022/01/21 04:36:48;;;;;;;;;;;0.50;99.90;;;;;;5011416;28;19929;-77
2022/01/21 04:39:15;;;;;;;;;;;0.50;99.90;;;;;;4994988;28;20364;-77
2022/01/21 04:47:18;;;;;;;;;;;0.50;99.90;;;;;;5011024;28;19921;-77
2022/01/21 04:49:44;;;;;;;;;;;0.50;99.90;;;;;;4995090;28;20383;-77
2022/01/21 04:52:10;;;;;;;;;;;0.50;99.90;;;;;;4994188;28;20391;-77
2022/01/21 04:54:36;;;;;;;;;;;0.60;99.90;;;;;;4999161;28;19960;-77
2022/01/21 04:57:03;;;;;;;;;;;0.60;99.90;;;;;;5011052;28;19926;-77
2022/01/21 04:59:28;;;;;;;;;;;0.60;99.90;;;;;;4994994;28;19928;-77
2022/01/21 05:01:54;;;;;;;;;;;0.70;99.90;;;;;;4994317;28;19921;-77
2022/01/21 05:04:20;;;;;;;;;;;0.80;99.90;;;;;;5010279;28;20380;-77
2022/01/21 05:06:48;;;;;;;;;;;0.80;99.90;;;;;;4994886;28;19988;-77
2022/01/21 05:09:16;;;;;;;;;;;0.80;99.90;;;;;;4994847;28;19980;-77
2022/01/21 05:11:42;;;;;;;;;;;0.90;99.90;;;;;;5005233;28;19921;-77
2022/01/21 05:14:18;;;;;;;;;;;0.90;99.90;;;;;;4991035;28;19929;-77
2022/01/21 05:16:47;;;;;;;;;;;0.90;99.90;;;;;;4991739;28;19926;-77
2022/01/21 05:19:16;;;;;;;;;;;0.80;99.90;;;;;;4991278;28;19926;-77
2022/01/21 05:21:46;;;;;;;;;;;0.80;99.90;;;;;;4991271;28;19921;-77
2022/01/21 05:24:12;;;;;;;;;;;0.90;99.90;;;;;;4991002;28;20401;-78
2022/01/21 05:26:39;;;;;;;;;;;0.80;99.90;;;;;;4991263;28;19965;-77
2022/01/21 05:29:06;;;;;;;;;;;0.80;99.90;;;;;;4991065;28;19929;-77
2022/01/21 05:31:32;;;;;;;;;;;0.70;99.90;;;;;;4991188;28;19933;-77
2022/01/21 05:33:57;;;;;;;;;;;0.70;99.90;;;;;;4990537;28;20291;-77
2022/01/21 05:36:24;;;;;;;;;;;0.70;99.90;;;;;;4991302;28;19930;-77
2022/01/21 05:38:49;;;;;;;;;;;0.60;99.90;;;;;;4991179;28;20311;-77
2022/01/21 05:41:18;;;;;;;;;;;0.70;99.90;;;;;;4994076;28;19929;-77
2022/01/21 05:43:46;;;;;;;;;;;0.60;99.90;;;;;;4994823;28;19979;-77
2022/01/21 05:48:56;;;;;;;;;;;0.60;99.90;;;;;;5010560;28;19921;-77
2022/01/21 05:51:22;;;;;;;;;;;0.60;99.90;;;;;;4994665;28;20386;-77
2022/01/21 05:53:48;;;;;;;;;;;0.60;99.90;;;;;;4995286;28;20008;-77
2022/01/21 05:56:14;;;;;;;;;;;0.50;99.90;;;;;;4994339;28;19922;-77
2022/01/21 05:58:39;;;;;;;;;;;0.60;99.90;;;;;;4994380;28;20004;-77
2022/01/21 06:01:05;;;;;;;;;;;0.60;99.90;;;;;;4994111;28;20008;-77
2022/01/21 06:03:31;;;;;;;;;;;0.70;99.90;;;;;;4996872;28;19929;-77
2022/01/21 06:05:56;;;;;;;;;;;0.70;99.90;;;;;;4997769;28;19979;-77
2022/01/21 06:08:22;;;;;;;;;;;0.80;99.90;;;;;;5003691;28;20295;-77
2022/01/21 06:10:48;;;;;;;;;;;0.80;99.90;;;;;;4997664;28;20407;-77
2022/01/21 06:13:18;;;;;;;;;;;0.80;99.90;;;;;;5002323;28;19921;-77
2022/01/21 06:15:44;;;;;;;;;;;0.70;99.90;;;;;;4997517;28;19922;-77
2022/01/21 06:18:10;;;;;;;;;;;0.70;99.90;;;;;;4997281;28;20000;-77
2022/01/21 06:20:36;;;;;;;;;;;0.60;99.90;;;;;;4997480;28;20016;-77
2022/01/21 06:23:04;;;;;;;;;;;0.50;99.90;;;;;;4999136;28;19925;-77
2022/01/21 06:25:29;;;;;;;;;;;0.40;99.90;;;;;;5013117;28;19921;-77
2022/01/21 06:27:55;;;;;;;;;;;0.40;99.90;;;;;;4997382;28;19928;-77
2022/01/21 06:30:21;;;;;;;;;;;0.20;99.90;;;;;;4997525;28;20465;-77
2022/01/21 06:32:46;;;;;;;;;;;0.30;99.90;;;;;;4996784;28;20450;-78
2022/01/21 06:35:12;;;;;;;;;;;0.30;99.90;;;;;;4998725;28;19926;-77
2022/01/21 06:37:38;;;;;;;;;;;0.30;99.90;;;;;;4996849;28;19921;-77
2022/01/21 06:40:04;;;;;;;;;;;0.30;99.90;;;;;;4997207;28;19925;-77
2022/01/21 06:42:30;;;;;;;;;;;0.30;99.90;;;;;;4996853;28;19925;-77
2022/01/21 06:44:56;;;;;;;;;;;0.30;99.90;;;;;;4996758;28;20297;-77
2022/01/21 06:47:22;;;;;;;;;;;0.40;99.90;;;;;;5009431;28;19932;-77
2022/01/21 06:49:48;;;;;;;;;;;0.40;99.90;;;;;;5013143;28;19925;-77
2022/01/21 06:52:16;;;;;;;;;;;0.50;99.90;;;;;;4997163;28;19921;-77
2022/01/21 06:54:42;;;;;;;;;;;0.60;99.90;;;;;;4996347;28;19964;-77
2022/01/21 06:57:08;;;;;;;;;;;0.70;99.90;;;;;;5006567;28;19965;-77
2022/01/21 06:59:33;;;;;;;;;;;0.80;99.90;;;;;;4996973;28;20465;-77
2022/01/21 07:01:59;;;;;;;;;;;0.80;99.90;;;;;;5012886;28;19922;-77
2022/01/21 07:04:24;;;;;;;;;;;0.80;99.90;;;;;;4996400;28;19921;-77
2022/01/21 07:06:50;;;;;;;;;;;0.80;99.90;;;;;;5004508;28;19921;-77
2022/01/21 07:09:15;;;;;;;;;;;0.80;99.90;;;;;;4996425;28;19926;-77
2022/01/21 07:11:41;;;;;;;;;;;0.70;99.90;;;;;;4996674;28;20275;-77
2022/01/21 07:14:06;;;;;;;;;;;0.80;99.90;;;;;;4995759;28;19925;-77
2022/01/21 07:16:32;;;;;;;;;;;0.70;99.90;;;;;;5002424;28;20408;-78
2022/01/21 07:18:57;;;;;;;;;;;0.70;99.90;;;;;;5001451;28;20273;-78
2022/01/21 07:21:23;;;;;;;;;;;0.70;99.90;;;;;;4996405;28;19925;-78
2022/01/21 07:23:49;;;;;;;;;;;0.70;99.90;;;;;;4995921;28;20021;-77
2022/01/21 07:26:14;;;;;;;;;;;0.70;99.90;;;;;;4996155;28;19925;-78
2022/01/21 07:28:42;;;;;;;;;;;0.60;99.90;;;;;;4992763;28;19972;-78
2022/01/21 07:31:08;;;;;;;;;;;0.70;99.90;;;;;;4992762;28;20383;-78
2022/01/21 07:33:34;;;;;;;;;;;0.70;99.90;;;;;;4992650;28;19922;-78
2022/01/21 07:35:59;;;;;;;;;;;0.70;99.90;;;;;;4994197;28;19921;-78
2022/01/21 07:38:25;;;;;;;;;;;0.60;99.90;;;;;;5009504;28;19922;-78
2022/01/21 07:40:50;;;;;;;;;;;0.50;99.90;;;;;;4995664;28;19921;-78
2022/01/21 07:43:16;;;;;;;;;;;0.50;99.90;;;;;;4995499;28;19925;-78
2022/01/21 07:45:42;;;;;;;;;;;0.50;99.90;;;;;;4996177;28;19925;-77
2022/01/21 07:48:07;;;;;;;;;;;0.50;99.90;;;;;;5000604;28;19921;-78
2022/01/21 07:50:34;;;;;;;;;;;0.50;99.90;;;;;;4995944;28;19922;-78
2022/01/21 07:53:00;;;;;;;;;;;0.50;99.90;;;;;;4996697;28;20451;-78
2022/01/21 07:55:25;;;;;;;;;;;0.60;99.90;;;;;;4996011;28;20004;-80
2022/01/21 07:57:57;;;;;;;;;;;0.60;99.90;;;;;;4991381;28;19921;-79
2022/01/21 08:00:37;;;;;;;;;;;0.60;99.90;;;;;;5013034;28;19975;-77
2022/01/21 08:03:04;;;;;;;;;;;0.70;99.90;;;;;;4997572;28;19925;-78
2022/01/21 08:05:35;;;;;;;;;;;0.80;99.90;;;;;;4997309;28;19925;-78
2022/01/21 08:08:18;;;;;;;;;;;0.80;99.90;;;;;;4995364;28;20284;-80
2022/01/21 08:10:44;;;;;;;;;;;0.90;99.90;;;;;;5001673;28;19998;-80
2022/01/21 08:13:10;;;;;;;;;;;0.90;99.90;;;;;;4993839;28;19922;-80
2022/01/21 08:15:37;;;;;;;;;;;0.90;99.90;;;;;;5008389;28;19984;-77
2022/01/21 08:18:03;;;;;;;;;;;1.00;99.90;;;;;;5010132;28;19932;-77
2022/01/21 08:20:28;;;;;;;;;;;1.00;99.90;;;;;;4996364;28;19925;-77
2022/01/21 08:22:54;;;;;;;;;;;1.00;99.90;;;;;;4995742;28;19925;-79
2022/01/21 08:25:22;;;;;;;;;;;1.10;99.90;;;;;;4991112;28;20017;-78
2022/01/21 08:27:47;;;;;;;;;;;1.20;99.90;;;;;;4991818;28;19922;-77
2022/01/21 08:30:13;;;;;;;;;;;1.20;99.90;;;;;;4976182;28;20450;-77
2022/01/21 08:32:39;;;;;;;;;;;1.30;99.90;;;;;;5004388;28;19947;-77
2022/01/21 08:35:06;;;;;;;;;;;1.20;99.90;;;;;;5011453;28;20246;-78
2022/01/21 08:37:32;;;;;;;;;;;1.20;99.90;;;;;;4995054;28;20284;-78
2022/01/21 08:39:57;;;;;;;;;;;1.20;99.90;;;;;;4994847;28;19943;-77
2022/01/21 08:42:37;;;;;;;;;;;1.20;99.90;;;;;;4994633;28;19929;-81
2022/01/21 08:45:03;;;;;;;;;;;1.20;99.90;;;;;;5011836;28;19983;-79
2022/01/21 08:47:40;;;;;;;;;;;1.30;99.90;;;;;;5008555;28;20004;-79
2022/01/21 08:50:10;;;;;;;;;;;1.30;99.90;;;;;;5005502;28;20311;-79
2022/01/21 08:52:47;;;;;;;;;;;1.40;99.90;;;;;;4990557;28;19922;-79
2022/01/21 08:55:27;;;;;;;;;;;1.50;99.90;;;;;;5003878;28;20182;-79
2022/01/21 08:58:05;;;;;;;;;;;1.60;99.90;;;;;;5001737;28;20311;-79
2022/01/21 09:00:42;;;;;;;;;;;1.60;99.90;;;;;;4997543;28;19961;-79
2022/01/21 09:03:14;;;;;;;;;;;1.70;99.90;;;;;;4994860;28;19925;-79
2022/01/21 09:06:01;;;;;;;;;;;1.70;99.90;;;;;;4999427;28;19922;-79
2022/01/21 09:08:46;;;;;;;;;;;1.80;99.90;;;;;;4991569;28;19921;-79
2022/01/21 09:11:21;;;;;;;;;;;1.70;99.90;;;;;;4998927;28;19928;-79
2022/01/21 09:14:11;;;;;;;;;;;1.80;99.90;;;;;;5006376;28;19979;-79
2022/01/21 09:16:42;;;;;;;;;;;1.90;99.90;;;;;;4995145;28;19921;-79
2022/01/21 09:19:13;;;;;;;;;;;2.10;99.90;;;;;;5011473;28;19979;-79
2022/01/21 09:21:51;;;;;;;;;;;2.40;99.90;;;;;;4995560;28;19922;-78
2022/01/21 09:24:28;;;;;;;;;;;2.60;99.90;;;;;;5010823;28;20338;-78
2022/01/21 09:26:53;;;;;;;;;;;2.80;99.90;;;;;;4994486;28;19921;-78
2022/01/21 09:29:19;;;;;;;;;;;2.90;99.90;;;;;;5010861;28;19991;-78
2022/01/21 09:31:51;;;;;;;;;;;2.90;99.90;;;;;;5012010;28;19922;-78
2022/01/21 09:34:19;;;;;;;;;;;3.00;99.90;;;;;;4994690;28;19929;-78
2022/01/21 09:36:45;;;;;;;;;;;3.00;99.90;;;;;;4992089;28;19922;-78
2022/01/21 09:39:13;;;;;;;;;;;3.10;99.90;;;;;;4998074;28;20032;-78
2022/01/21 09:41:42;;;;;;;;;;;3.10;99.90;;;;;;4998504;28;19921;-78
2022/01/21 09:44:11;;;;;;;;;;;3.20;99.90;;;;;;5011520;28;19937;-77
2022/01/21 09:46:37;;;;;;;;;;;3.10;99.90;;;;;;5014402;28;19921;-77
2022/01/21 09:49:46;;;;;;;;;;;3.10;99.90;;;;;;4998036;28;19932;-77
2022/01/21 09:51:54;;;;;;;;;;;3.20;99.90;;;;;;5011821;28;19925;-77
2022/01/21 09:54:21;;;;;;;;;;;3.20;99.90;;;;;;4997763;28;19975;-77
2022/01/21 09:56:47;;;;;;;;;;;3.20;99.90;;;;;;4998480;28;20388;-78
2022/01/21 09:59:16;;;;;;;;;;;3.20;99.90;;;;;;4998097;28;19932;-78
2022/01/21 10:01:47;;;;;;;;;;;3.30;99.90;;;;;;4997430;28;20371;-78
2022/01/21 10:04:13;;;;;;;;;;;3.40;99.90;;;;;;4998694;28;19929;-78
2022/01/21 10:06:39;;;;;;;;;;;3.70;99.90;;;;;;4997608;28;19928;-78
2022/01/21 10:09:04;;;;;;;;;;;3.90;99.90;;;;;;4997904;28;19921;-78
2022/01/21 10:11:32;;;;;;;;;;;4.10;99.90;;;;;;4997872;28;19965;-78
2022/01/21 10:14:07;;;;;;;;;;;4.20;99.90;;;;;;5009486;28;19948;-78
2022/01/21 10:16:35;;;;;;;;;;;4.30;99.90;;;;;;4997901;28;19922;-78
2022/01/21 10:19:11;;;;;;;;;;;4.30;99.90;;;;;;4997461;28;19928;-78
2022/01/21 10:21:45;;;;;;;;;;;4.40;99.90;;;;;;4997593;28;19972;-78
2022/01/21 10:24:14;;;;;;;;;;;4.60;99.90;;;;;;4996658;28;20456;-78
2022/01/21 10:26:52;;;;;;;;;;;4.80;99.90;;;;;;5005044;28;19968;-79
2022/01/21 10:29:18;;;;;;;;;;;5.00;99.90;;;;;;5001348;28;19988;-78
2022/01/21 10:32:00;;;;;;;;;;;5.00;99.90;;;;;;5004730;28;20019;-79
2022/01/21 10:34:30;;;;;;;;;;;5.10;99.90;;;;;;5011279;28;20296;-78
2022/01/21 10:37:06;;;;;;;;;;;5.20;99.90;;;;;;5018496;28;19925;-77
2022/01/21 10:39:33;;;;;;;;;;;5.20;99.90;;;;;;4998110;28;19929;-76
2022/01/21 10:42:00;;;;;;;;;;;5.30;99.90;;;;;;4999085;28;19929;-76
2022/01/21 10:44:28;;;;;;;;;;;5.60;99.90;;;;;;4994350;28;20020;-75
2022/01/21 10:47:03;;;;;;;;;;;5.90;99.90;;;;;;4999153;28;19975;-77
2022/01/21 10:49:29;;;;;;;;;;;6.00;99.90;;;;;;4993256;28;19921;-76
2022/01/21 10:51:55;;;;;;;;;;;6.00;99.90;;;;;;5009716;28;19928;-74
2022/01/21 10:54:31;;;;;;;;;;;6.00;99.90;;;;;;5012250;28;20260;-77
2022/01/21 10:57:03;;;;;;;;;;;6.00;99.90;;;;;;4992109;28;20339;-74
2022/01/21 10:59:47;;;;;;;;;;;6.00;99.90;;;;;;4992776;28;19982;-74
2022/01/21 11:02:13;;;;;;;;;;;5.90;99.90;;;;;;5005749;28;19926;-74
2022/01/21 11:04:42;;;;;;;;;;;6.00;99.90;;;;;;5003748;28;19960;-74
2022/01/21 11:07:09;;;;;;;;;;;6.10;99.90;;;;;;5012454;28;19922;-74
2022/01/21 11:09:35;;;;;;;;;;;6.20;99.90;;;;;;4995483;28;19953;-74
2022/01/21 11:12:08;;;;;;;;;;;6.30;99.90;;;;;;4997870;28;19961;-74
2022/01/21 11:14:34;;;;;;;;;;;6.40;99.90;;;;;;5005912;28;19928;-74
2022/01/21 11:17:15;;;;;;;;;;;6.50;99.90;;;;;;4996333;28;20375;-75
2022/01/21 11:20:00;;;;;;;;;;;6.50;99.90;;;;;;5004624;28;19921;-74
2022/01/21 11:22:25;;;;;;;;;;;6.50;99.90;;;;;;5003818;28;19930;-74
2022/01/21 11:24:51;;;;;;;;;;;6.50;99.90;;;;;;5004975;28;19922;-74
2022/01/21 11:27:16;;;;;;;;;;;6.50;99.90;;;;;;5001777;28;20399;-75
2022/01/21 11:29:44;;;;;;;;;;;6.50;99.90;;;;;;5006447;28;19925;-76
2022/01/21 11:32:09;;;;;;;;;;;6.50;99.90;;;;;;5004287;28;19921;-74
2022/01/21 11:34:36;;;;;;;;;;;6.60;99.90;;;;;;5009484;28;19975;-73
2022/01/21 11:37:02;;;;;;;;;;;6.60;99.90;;;;;;5005254;28;19925;-74
2022/01/21 11:39:29;;;;;;;;;;;6.70;99.90;;;;;;4991313;28;20304;-73
2022/01/21 11:41:56;;;;;;;;;;;6.70;99.90;;;;;;5007798;28;19928;-73
2022/01/21 11:44:25;;;;;;;;;;;6.70;99.90;;;;;;4993743;28;19930;-73
2022/01/21 11:47:13;;;;;;;;;;;6.60;99.90;;;;;;5006585;28;19927;-74
2022/01/21 11:49:40;;;;;;;;;;;6.60;99.90;;;;;;5012458;28;19968;-77
2022/01/21 11:52:08;;;;;;;;;;;6.60;99.90;;;;;;5009998;28;19921;-74
2022/01/21 11:54:35;;;;;;;;;;;6.60;99.90;;;;;;4990248;28;19927;-74
2022/01/21 11:57:04;;;;;;;;;;;6.60;99.90;;;;;;5004950;28;19925;-75
2022/01/21 11:59:39;;;;;;;;;;;6.70;99.90;;;;;;4992346;28;19980;-74
2022/01/21 12:02:21;;;;;;;;;;;6.70;99.90;;;;;;4985451;28;20295;-75
2022/01/21 12:04:48;;;;;;;;;;;6.70;99.90;;;;;;5011187;28;20280;-76
2022/01/21 12:07:32;;;;;;;;;;;6.60;99.90;;;;;;5002583;28;19928;-73
2022/01/21 12:10:03;;;;;;;;;;;6.50;99.90;;;;;;4995748;28;20015;-73
2022/01/21 12:12:44;;;;;;;;;;;6.50;99.90;;;;;;5009320;28;20210;-74
2022/01/21 12:15:11;;;;;;;;;;;6.60;99.90;;;;;;4991713;28;19925;-76
2022/01/21 12:17:44;;;;;;;;;;;6.60;99.90;;;;;;5002704;28;19921;-74
2022/01/21 12:20:10;;;;;;;;;;;6.50;99.90;;;;;;5002738;28;20296;-75
2022/01/21 12:22:35;;;;;;;;;;;6.50;99.90;;;;;;5008332;28;19925;-76
2022/01/21 12:25:08;;;;;;;;;;;6.50;99.90;;;;;;5005551;28;19922;-74
2022/01/21 12:27:36;;;;;;;;;;;6.50;99.90;;;;;;5001829;28;19976;-76
2022/01/21 12:30:20;;;;;;;;;;;6.50;99.90;;;;;;4992051;28;19921;-76
2022/01/21 12:32:53;;;;;;;;;;;6.40;99.90;;;;;;4987207;28;19927;-76
2022/01/21 12:35:19;;;;;;;;;;;6.40;99.90;;;;;;4989980;28;19922;-77
2022/01/21 12:39:05;;;;;;;;;;;6.40;99.90;;;;;;5019956;28;20291;-77
2022/01/21 12:40:49;;;;;;;;;;;6.40;99.90;;;;;;5003429;28;20402;-77
2022/01/21 12:43:33;;;;;;;;;;;6.40;99.90;;;;;;4998626;28;19925;-80
2022/01/21 12:46:10;;;;;;;;;;;6.50;99.90;;;;;;5000762;28;19921;-76
2022/01/21 12:48:37;;;;;;;;;;;6.50;99.90;;;;;;4991628;28;19926;-76
2022/01/21 12:51:18;;;;;;;;;;;6.60;99.90;;;;;;5003935;28;19981;-76
2022/01/21 12:56:42;;;;;;;;;;;6.60;99.90;;;;;;5006279;28;20447;-76
2022/01/21 12:59:14;;;;;;;;;;;6.70;99.90;;;;;;5010479;28;20309;-76
2022/01/21 13:01:39;;;;;;;;;;;6.70;99.90;;;;;;4994449;28;20380;-74
2022/01/21 13:04:24;;;;;;;;;;;6.80;99.90;;;;;;4994064;28;19972;-74
2022/01/21 13:06:56;;;;;;;;;;;6.80;99.90;;;;;;4991528;28;19971;-74
2022/01/21 13:09:33;;;;;;;;;;;6.80;99.90;;;;;;5023226;28;20304;-74
2022/01/21 13:12:04;;;;;;;;;;;6.80;99.90;;;;;;4986889;28;20374;-74
2022/01/21 13:17:06;;;;;;;;;;;6.70;99.90;;;;;;5006772;28;20296;-74
2022/01/21 13:19:49;;;;;;;;;;;6.60;99.90;;;;;;5008743;28;19933;-74
2022/01/21 13:22:19;;;;;;;;;;;6.60;99.90;;;;;;5010269;28;20301;-74
2022/01/21 13:25:15;;;;;;;;;;;6.60;99.90;;;;;;5010731;28;20343;-74
2022/01/21 13:27:45;;;;;;;;;;;6.50;99.90;;;;;;5008113;28;19922;-74
2022/01/21 13:30:12;;;;;;;;;;;6.50;99.90;;;;;;4998668;28;20103;-74
2022/01/21 13:32:37;;;;;;;;;;;6.50;99.90;;;;;;5030336;28;19929;-74
2022/01/21 13:35:17;;;;;;;;;;;6.50;99.90;;;;;;4998577;28;19928;-74
2022/01/21 13:38:01;;;;;;;;;;;6.60;99.90;;;;;;4998472;28;19948;-74
2022/01/21 13:40:30;;;;;;;;;;;6.60;99.90;;;;;;4996392;28;19928;-75
2022/01/21 13:43:07;;;;;;;;;;;6.60;99.90;;;;;;4997640;28;19933;-77
2022/01/21 13:45:33;;;;;;;;;;;6.60;99.90;;;;;;4997995;28;20004;-75
2022/01/21 13:48:02;;;;;;;;;;;6.60;99.90;;;;;;4998088;28;20012;-74
2022/01/21 13:50:30;;;;;;;;;;;6.60;99.90;;;;;;4995984;28;19922;-74
2022/01/21 13:52:59;;;;;;;;;;;6.70;99.90;;;;;;4995597;28;19944;-75
2022/01/21 13:55:39;;;;;;;;;;;6.70;99.90;;;;;;4998724;28;19961;-74
2022/01/21 13:58:07;;;;;;;;;;;6.70;99.90;;;;;;5003390;28;20394;-74
2022/01/21 14:00:41;;;;;;;;;;;6.60;99.90;;;;;;4995998;28;19945;-74
2022/01/21 14:03:09;;;;;;;;;;;6.60;99.90;;;;;;4979195;28;20008;-74
2022/01/21 14:05:44;;;;;;;;;;;6.60;99.90;;;;;;4979425;28;19922;-74
2022/01/21 14:08:11;;;;;;;;;;;6.60;99.90;;;;;;5005897;28;19922;-73
2022/01/21 14:10:36;;;;;;;;;;;6.60;99.90;;;;;;5013155;28;20431;-74
2022/01/21 14:13:02;;;;;;;;;;;6.60;99.90;;;;;;5013994;28;20016;-74
2022/01/21 14:15:31;;;;;;;;;;;6.60;99.90;;;;;;4997581;28;19925;-74
2022/01/21 14:17:56;;;;;;;;;;;6.60;99.90;;;;;;4996952;28;19922;-73
2022/01/21 14:20:22;;;;;;;;;;;6.60;99.90;;;;;;4997853;28;19925;-74
2022/01/21 14:22:47;;;;;;;;;;;6.60;99.90;;;;;;5013496;28;19926;-74
2022/01/21 14:25:13;;;;;;;;;;;6.60;99.90;;;;;;5012351;28;19944;-73
2022/01/21 14:27:45;;;;;;;;;;;6.60;99.90;;;;;;5000413;28;19928;-73
2022/01/21 14:30:12;;;;;;;;;;;6.50;99.90;;;;;;5014228;28;20019;-73
2022/01/21 14:32:40;;;;;;;;;;;6.50;99.90;;;;;;5012896;28;19921;-73
2022/01/21 14:35:10;;;;;;;;;;;6.40;99.90;;;;;;5013103;28;19929;-73
2022/01/21 14:37:37;;;;;;;;;;;6.40;99.90;;;;;;5009217;28;19922;-73
2022/01/21 14:40:03;;;;;;;;;;;6.30;99.90;;;;;;4996928;28;19932;-73
2022/01/21 14:42:29;;;;;;;;;;;6.30;99.90;;;;;;5013155;28;20355;-74
2022/01/21 14:44:56;;;;;;;;;;;6.30;99.90;;;;;;5014025;28;19968;-73
2022/01/21 14:47:25;;;;;;;;;;;6.30;99.90;;;;;;5014196;28;19925;-73
2022/01/21 14:50:06;;;;;;;;;;;6.20;99.90;;;;;;5013090;28;19928;-73
2022/01/21 14:52:44;;;;;;;;;;;6.20;99.90;;;;;;4995662;28;20024;-73
2022/01/21 14:55:10;;;;;;;;;;;6.20;99.90;;;;;;4987025;28;19922;-73
2022/01/21 14:57:35;;;;;;;;;;;6.20;99.90;;;;;;4993679;28;19928;-73
2022/01/21 15:00:04;;;;;;;;;;;6.20;99.90;;;;;;5006453;28;19969;-73
2022/01/21 15:02:30;;;;;;;;;;;6.10;99.90;;;;;;5007379;28;19949;-73
2022/01/21 15:04:57;;;;;;;;;;;6.10;99.90;;;;;;5000266;28;19922;-73
2022/01/21 15:07:26;;;;;;;;;;;6.10;99.90;;;;;;5011786;28;19929;-73
2022/01/21 15:09:56;;;;;;;;;;;6.10;99.90;;;;;;4991289;28;19965;-73
2022/01/21 15:15:10;;;;;;;;;;;6.00;99.90;;;;;;4993129;28;20009;-73
2022/01/21 15:17:35;;;;;;;;;;;6.00;99.90;;;;;;4976811;28;20006;-73
2022/01/21 15:20:01;;;;;;;;;;;6.00;99.90;;;;;;5002579;28;20406;-73
2022/01/21 15:22:27;;;;;;;;;;;5.90;99.90;;;;;;5011802;28;20291;-73
2022/01/21 15:24:53;;;;;;;;;;;5.90;99.90;;;;;;5012585;28;19932;-73
2022/01/21 15:27:19;;;;;;;;;;;5.90;99.90;;;;;;5009195;28;19925;-73
2022/01/21 15:29:45;;;;;;;;;;;5.90;99.90;;;;;;4997241;28;20412;-73